Flight Track Log - Related Links

Times and Time Zones

All times are in EST time to prevent confusion due to time zone crossing. See the N6036Y flight status page for this flight to view local times or setup timezone preferences in your user account.

Time Position Orientation Groundspeed Altitude Reporting Facility
EST Latitude Longitude Course Direction KTS MPH feet Rate Location/Type
Fri 10:03:13 AM 28.5833 -80.8167 127° Southeast 96 110 5,500  Level Orlando TRACON
Fri 10:04:13 AM 28.5500 -80.8000 156° South 97 112 5,500  Level Orlando TRACON
Fri 10:05:19 AM 28.5333 -80.8000 180° South 95 109 5,500  Level Orlando TRACON
Fri 10:06:08 AM 28.5000 -80.7833 156° South 96 110 5,500  Level Orlando TRACON
Fri 10:07:14 AM 28.4833 -80.7833 180° South 101 116 5,500  Level Orlando TRACON
Fri 10:08:00 AM 28.6152 -81.4926 127° Southeast  Level Estimated
Fri 10:08:15 AM 28.4500 -80.7667 156° South 97 112 5,500  Level Orlando TRACON
Fri 10:09:08 AM 28.4333 -80.7500 139° Southeast 95 109 5,500  Level Orlando TRACON
Fri 10:10:09 AM 28.4000 -80.7500 180° South 96 110 5,500  Level Orlando TRACON
Fri 10:11:09 AM 28.3833 -80.7333 139° Southeast 97 112 5,500  Level Orlando TRACON
Fri 10:12:15 AM 28.3500 -80.7167 156° South 95 109 5,500  Level Orlando TRACON
Fri 10:13:15 AM 28.3333 -80.7167 180° South 97 112 5,500  Level Orlando TRACON
Fri 10:14:10 AM 28.3000 -80.7000 156° South 95 109 5,500  Level Orlando TRACON
Fri 10:15:10 AM 28.2833 -80.7000 180° South 92 106 5,500  Level Orlando TRACON
Fri 10:16:22 AM 28.2500 -80.7000 180° South 99 114 5,500 -50 Level Orlando TRACON
Fri 10:17:10 AM 28.2333 -80.6833 139° Southeast 100 115 5,400 -56 Descending Orlando TRACON
Fri 10:18:10 AM 28.2000 -80.6667 156° South 99 114 5,400 48 Level Orlando TRACON
Fri 10:19:16 AM 28.1667 -80.6667 180° South 100 115 5,500  Climbing Orlando TRACON
Fri 10:21:18 AM 28.1192 -80.6492 162° South 94 108 5,400  Descending Miami Center
Fri 10:22:18 AM 28.0922 -80.6411 165° South 94 108 5,500 50 Climbing Miami Center
Fri 10:23:18 AM 28.0717 -80.6333 162° South 94 108 5,500  Level Miami Center
Fri 10:24:18 AM 28.0447 -80.6256 166° South 99 114 5,500  Level Miami Center
Fri 10:25:18 AM 28.0331 -80.5897 110° East 94 108 5,500  Level Miami Center
Fri 10:26:18 AM 28.0278 -80.5567 100° East 105 121 5,500  Level Miami Center
Fri 10:27:18 AM 28.0117 -80.5303 125° Southeast 105 121 5,500 50 Level Miami Center
Fri 10:28:18 AM 27.9892 -80.5156 150° Southeast 100 115 5,600 50 Climbing Miami Center
Fri 10:29:18 AM 27.9686 -80.5008 148° Southeast 100 115 5,600 -50 Level Miami Center
Fri 10:30:18 AM 27.9397 -80.4811 149° Southeast 100 115 5,500 -50 Descending Miami Center
Fri 10:31:18 AM 27.9150 -80.4708 160° South 95 109 5,500  Level Miami Center
Fri 10:32:18 AM 27.8903 -80.4631 164° South 95 109 5,500 -200 Level Miami Center
Fri 10:33:18 AM 27.8633 -80.4528 161° South 95 109 5,100 -400 Descending Miami Center
Fri 10:34:18 AM 27.8425 -80.4475 167° South 90 104 4,700 -500 Descending Miami Center
Fri 10:35:18 AM 27.8156 -80.4394 165° South 90 104 4,100 -700 Descending Miami Center
Fri 10:36:18 AM 27.7886 -80.4317 166° South 95 109 3,300 -750 Descending Miami Center
Fri 10:37:18 AM 27.7575 -80.4306 178° South 105 121 2,600 -700 Descending Miami Center
Fri 10:39:00 AM 27.6805 -80.4319 156° South  Level FlightAware Approximate

Login

Don't have an account? Register now (free) for customized features, flight alerts, and more!